sensor_id;sensor_type;location;lat;lon;timestamp;pressure;altitude;pressure_sealevel;temperature;humidity
59654;BME280;66556;52.008;5.432;2023-05-09T00:01:12;101733.0;;;35.47;25.38
59654;BME280;66556;52.008;5.432;2023-05-09T00:02:48;101736.0;;;35.49;25.35
59654;BME280;66556;52.008;5.432;2023-05-09T00:04:24;101728.0;;;35.85;25.09
59654;BME280;66556;52.008;5.432;2023-05-09T00:06:00;101733.0;;;35.96;24.62
59654;BME280;66556;52.008;5.432;2023-05-09T00:09:12;101732.0;;;36.03;24.7
59654;BME280;66556;52.008;5.432;2023-05-09T00:10:48;101726.0;;;36.1;24.56
59654;BME280;66556;52.008;5.432;2023-05-09T00:12:25;101720.0;;;35.81;24.82
59654;BME280;66556;52.008;5.432;2023-05-09T00:15:39;101721.0;;;35.62;25.01
59654;BME280;66556;52.008;5.432;2023-05-09T00:17:15;101721.0;;;35.49;25.17
59654;BME280;66556;52.008;5.432;2023-05-09T00:18:51;101721.0;;;35.03;25.76
59654;BME280;66556;52.008;5.432;2023-05-09T00:22:03;101716.0;;;34.76;26.28
59654;BME280;66556;52.008;5.432;2023-05-09T00:25:16;101712.0;;;34.92;26.26
59654;BME280;66556;52.008;5.432;2023-05-09T00:26:52;101716.0;;;35.01;26.16
59654;BME280;66556;52.008;5.432;2023-05-09T00:30:05;101721.0;;;35.15;25.95
59654;BME280;66556;52.008;5.432;2023-05-09T00:31:41;101718.0;;;35.07;26.06
59654;BME280;66556;52.008;5.432;2023-05-09T00:33:18;101715.0;;;35.26;26.16
59654;BME280;66556;52.008;5.432;2023-05-09T00:36:31;101710.0;;;35.56;25.69
59654;BME280;66556;52.008;5.432;2023-05-09T00:38:07;101712.0;;;35.56;25.56
59654;BME280;66556;52.008;5.432;2023-05-09T00:39:43;101708.0;;;35.89;25.32
59654;BME280;66556;52.008;5.432;2023-05-09T00:42:55;101714.0;;;35.44;25.56
59654;BME280;66556;52.008;5.432;2023-05-09T00:44:33;101707.0;;;35.69;25.41
59654;BME280;66556;52.008;5.432;2023-05-09T00:46:10;101707.0;;;35.4;25.76
59654;BME280;66556;52.008;5.432;2023-05-09T00:49:22;101703.0;;;35.56;25.63
59654;BME280;66556;52.008;5.432;2023-05-09T00:50:58;101700.0;;;35.33;25.74
59654;BME280;66556;52.008;5.432;2023-05-09T00:52:34;101697.0;;;35.31;25.88
59654;BME280;66556;52.008;5.432;2023-05-09T00:54:11;101696.0;;;35.57;25.77
59654;BME280;66556;52.008;5.432;2023-05-09T00:57:24;101698.0;;;35.71;25.5
59654;BME280;66556;52.008;5.432;2023-05-09T00:59:00;101695.0;;;35.58;25.65
59654;BME280;66556;52.008;5.432;2023-05-09T01:00:36;101700.0;;;35.39;25.91
59654;BME280;66556;52.008;5.432;2023-05-09T01:03:48;101697.0;;;35.5;25.95
59654;BME280;66556;52.008;5.432;2023-05-09T01:05:29;101694.0;;;35.21;26.34
59654;BME280;66556;52.008;5.432;2023-05-09T01:07:17;101689.0;;;35.51;25.84
59654;BME280;66556;52.008;5.432;2023-05-09T01:09:02;101686.0;;;35.61;25.73
59654;BME280;66556;52.008;5.432;2023-05-09T01:12:36;101681.0;;;35.67;25.51
59654;BME280;66556;52.008;5.432;2023-05-09T01:14:24;101680.0;;;35.64;25.61
59654;BME280;66556;52.008;5.432;2023-05-09T01:16:15;101678.0;;;35.5;25.71
59654;BME280;66556;52.008;5.432;2023-05-09T01:18:06;101672.0;;;35.81;25.28
59654;BME280;66556;52.008;5.432;2023-05-09T01:19:57;101664.0;;;36.01;25.2
59654;BME280;66556;52.008;5.432;2023-05-09T01:21:39;101661.0;;;35.92;25.0
59654;BME280;66556;52.008;5.432;2023-05-09T01:27:18;101655.0;;;35.24;25.85
59654;BME280;66556;52.008;5.432;2023-05-09T01:29:30;101655.0;;;35.36;25.74
59654;BME280;66556;52.008;5.432;2023-05-09T01:31:08;101651.0;;;35.42;25.67
59654;BME280;66556;52.008;5.432;2023-05-09T01:32:46;101646.0;;;35.15;25.79
59654;BME280;66556;52.008;5.432;2023-05-09T01:36:07;101638.0;;;35.92;25.17
59654;BME280;66556;52.008;5.432;2023-05-09T01:39:26;101637.0;;;35.92;24.94
59654;BME280;66556;52.008;5.432;2023-05-09T01:41:06;101641.0;;;35.4;25.57
59654;BME280;66556;52.008;5.432;2023-05-09T01:42:47;101639.0;;;35.31;25.87
59654;BME280;66556;52.008;5.432;2023-05-09T01:44:31;101635.0;;;35.69;25.42
59654;BME280;66556;52.008;5.432;2023-05-09T01:47:54;101635.0;;;35.82;25.29
59654;BME280;66556;52.008;5.432;2023-05-09T01:51:12;101630.0;;;35.0;26.03
59654;BME280;66556;52.008;5.432;2023-05-09T01:52:54;101626.0;;;34.97;26.25
59654;BME280;66556;52.008;5.432;2023-05-09T01:56:11;101630.0;;;34.75;26.38
59654;BME280;66556;52.008;5.432;2023-05-09T01:57:48;101630.0;;;34.81;26.33
59654;BME280;66556;52.008;5.432;2023-05-09T01:59:25;101621.0;;;35.17;25.89
59654;BME280;66556;52.008;5.432;2023-05-09T02:01:03;101625.0;;;34.93;26.25
59654;BME280;66556;52.008;5.432;2023-05-09T02:04:18;101621.0;;;35.01;26.14
59654;BME280;66556;52.008;5.432;2023-05-09T02:05:54;101622.0;;;34.86;26.35
59654;BME280;66556;52.008;5.432;2023-05-09T02:07:32;101615.0;;;35.47;25.73
59654;BME280;66556;52.008;5.432;2023-05-09T02:10:46;101619.0;;;35.06;26.04
59654;BME280;66556;52.008;5.432;2023-05-09T02:12:22;101613.0;;;35.1;26.03
59654;BME280;66556;52.008;5.432;2023-05-09T02:13:58;101615.0;;;35.06;25.94
59654;BME280;66556;52.008;5.432;2023-05-09T02:17:11;101610.0;;;34.89;26.14
59654;BME280;66556;52.008;5.432;2023-05-09T02:18:47;101612.0;;;34.81;26.21
59654;BME280;66556;52.008;5.432;2023-05-09T02:20:23;101611.0;;;35.32;25.84
59654;BME280;66556;52.008;5.432;2023-05-09T02:21:59;101601.0;;;35.35;25.85
59654;BME280;66556;52.008;5.432;2023-05-09T02:25:12;101600.0;;;35.57;25.46
59654;BME280;66556;52.008;5.432;2023-05-09T02:26:49;101598.0;;;35.46;25.57
59654;BME280;66556;52.008;5.432;2023-05-09T02:28:26;101605.0;;;34.99;25.94
59654;BME280;66556;52.008;5.432;2023-05-09T02:31:44;101600.0;;;35.08;25.79
59654;BME280;66556;52.008;5.432;2023-05-09T02:33:24;101599.0;;;35.03;25.88
59654;BME280;66556;52.008;5.432;2023-05-09T02:35:02;101605.0;;;35.14;25.97
59654;BME280;66556;52.008;5.432;2023-05-09T02:36:39;101601.0;;;34.97;26.2
59654;BME280;66556;52.008;5.432;2023-05-09T02:39:53;101600.0;;;35.03;25.89
59654;BME280;66556;52.008;5.432;2023-05-09T02:41:30;101599.0;;;35.11;25.65
59654;BME280;66556;52.008;5.432;2023-05-09T02:43:06;101599.0;;;35.06;25.92
59654;BME280;66556;52.008;5.432;2023-05-09T02:46:18;101605.0;;;35.15;25.4
59654;BME280;66556;52.008;5.432;2023-05-09T02:47:54;101601.0;;;34.87;26.02
59654;BME280;66556;52.008;5.432;2023-05-09T02:49:30;101601.0;;;35.04;25.91
59654;BME280;66556;52.008;5.432;2023-05-09T02:52:43;101599.0;;;34.99;25.99
59654;BME280;66556;52.008;5.432;2023-05-09T02:54:19;101593.0;;;35.42;25.4
59654;BME280;66556;52.008;5.432;2023-05-09T02:55:55;101590.0;;;35.49;25.32
59654;BME280;66556;52.008;5.432;2023-05-09T02:57:31;101591.0;;;35.47;25.46
59654;BME280;66556;52.008;5.432;2023-05-09T03:00:43;101588.0;;;35.42;25.31
59654;BME280;66556;52.008;5.432;2023-05-09T03:02:19;101588.0;;;35.33;25.59
59654;BME280;66556;52.008;5.432;2023-05-09T03:03:55;101580.0;;;35.36;25.34
59654;BME280;66556;52.008;5.432;2023-05-09T03:07:08;101581.0;;;35.96;24.94
59654;BME280;66556;52.008;5.432;2023-05-09T03:08:44;101578.0;;;35.92;24.76
59654;BME280;66556;52.008;5.432;2023-05-09T03:10:20;101576.0;;;35.35;25.24
59654;BME280;66556;52.008;5.432;2023-05-09T03:13:32;101575.0;;;35.03;25.63
59654;BME280;66556;52.008;5.432;2023-05-09T03:15:09;101573.0;;;35.33;25.3
59654;BME280;66556;52.008;5.432;2023-05-09T03:16:44;101568.0;;;35.42;25.37
59654;BME280;66556;52.008;5.432;2023-05-09T03:19:57;101566.0;;;35.14;25.72
59654;BME280;66556;52.008;5.432;2023-05-09T03:21:33;101562.0;;;35.51;25.08
59654;BME280;66556;52.008;5.432;2023-05-09T03:23:09;101565.0;;;35.03;25.63
59654;BME280;66556;52.008;5.432;2023-05-09T03:24:45;101564.0;;;34.89;25.73
59654;BME280;66556;52.008;5.432;2023-05-09T03:27:57;101558.0;;;35.14;25.49
59654;BME280;66556;52.008;5.432;2023-05-09T03:29:33;101555.0;;;35.5;25.31
59654;BME280;66556;52.008;5.432;2023-05-09T03:31:09;101555.0;;;35.17;25.43
59654;BME280;66556;52.008;5.432;2023-05-09T03:34:22;101556.0;;;36.1;24.46
59654;BME280;66556;52.008;5.432;2023-05-09T03:35:58;101551.0;;;36.1;24.61
59654;BME280;66556;52.008;5.432;2023-05-09T03:37:34;101548.0;;;36.21;24.46
59654;BME280;66556;52.008;5.432;2023-05-09T03:40:47;101540.0;;;36.15;24.49
59654;BME280;66556;52.008;5.432;2023-05-09T03:42:23;101532.0;;;35.65;25.01
59654;BME280;66556;52.008;5.432;2023-05-09T03:44:00;101521.0;;;36.04;24.61
59654;BME280;66556;52.008;5.432;2023-05-09T03:45:36;101522.0;;;35.99;24.73
59654;BME280;66556;52.008;5.432;2023-05-09T03:48:49;101521.0;;;36.42;24.36
59654;BME280;66556;52.008;5.432;2023-05-09T03:50:25;101519.0;;;35.74;24.78
59654;BME280;66556;52.008;5.432;2023-05-09T03:52:02;101517.0;;;36.17;24.39
59654;BME280;66556;52.008;5.432;2023-05-09T03:55:14;101517.0;;;36.14;24.58
59654;BME280;66556;52.008;5.432;2023-05-09T03:56:51;101517.0;;;35.81;24.58
59654;BME280;66556;52.008;5.432;2023-05-09T03:58:27;101521.0;;;35.93;24.72
59654;BME280;66556;52.008;5.432;2023-05-09T04:01:40;101516.0;;;36.26;24.25
59654;BME280;66556;52.008;5.432;2023-05-09T04:03:16;101513.0;;;36.08;24.28
59654;BME280;66556;52.008;5.432;2023-05-09T04:04:52;101508.0;;;36.11;24.58
59654;BME280;66556;52.008;5.432;2023-05-09T04:08:04;101506.0;;;36.44;23.93
59654;BME280;66556;52.008;5.432;2023-05-09T04:09:41;101501.0;;;36.42;24.03
59654;BME280;66556;52.008;5.432;2023-05-09T04:11:17;101497.0;;;36.04;24.21
59654;BME280;66556;52.008;5.432;2023-05-09T04:12:53;101501.0;;;35.61;24.63
59654;BME280;66556;52.008;5.432;2023-05-09T04:16:05;101501.0;;;36.35;24.1
59654;BME280;66556;52.008;5.432;2023-05-09T04:17:41;101498.0;;;36.22;24.28
59654;BME280;66556;52.008;5.432;2023-05-09T04:19:17;101499.0;;;35.89;24.7
59654;BME280;66556;52.008;5.432;2023-05-09T04:22:31;101506.0;;;36.17;24.15
59654;BME280;66556;52.008;5.432;2023-05-09T04:24:07;101512.0;;;35.12;25.28
59654;BME280;66556;52.008;5.432;2023-05-09T04:25:43;101505.0;;;35.46;24.84
59654;BME280;66556;52.008;5.432;2023-05-09T04:28:55;101499.0;;;36.21;24.22
59654;BME280;66556;52.008;5.432;2023-05-09T04:30:31;101503.0;;;35.92;24.4
59654;BME280;66556;52.008;5.432;2023-05-09T04:32:07;101505.0;;;35.35;25.16
59654;BME280;66556;52.008;5.432;2023-05-09T04:33:44;101501.0;;;35.86;24.63
59654;BME280;66556;52.008;5.432;2023-05-09T04:36:56;101498.0;;;36.49;23.84
59654;BME280;66556;52.008;5.432;2023-05-09T04:38:32;101487.0;;;35.79;24.56
59654;BME280;66556;52.008;5.432;2023-05-09T04:40:09;101493.0;;;35.89;24.6
59654;BME280;66556;52.008;5.432;2023-05-09T04:43:21;101490.0;;;35.25;25.55
59654;BME280;66556;52.008;5.432;2023-05-09T04:44:57;101485.0;;;36.01;24.55
59654;BME280;66556;52.008;5.432;2023-05-09T04:46:33;101487.0;;;36.1;24.28
59654;BME280;66556;52.008;5.432;2023-05-09T04:49:46;101488.0;;;35.65;24.89
59654;BME280;66556;52.008;5.432;2023-05-09T04:51:22;101487.0;;;35.61;24.81
59654;BME280;66556;52.008;5.432;2023-05-09T04:52:58;101482.0;;;36.06;24.38
59654;BME280;66556;52.008;5.432;2023-05-09T04:56:10;101481.0;;;36.07;24.43
59654;BME280;66556;52.008;5.432;2023-05-09T04:57:46;101480.0;;;36.21;24.49
59654;BME280;66556;52.008;5.432;2023-05-09T04:59:22;101476.0;;;36.96;23.63
59654;BME280;66556;52.008;5.432;2023-05-09T05:00:59;101476.0;;;35.46;25.05
59654;BME280;66556;52.008;5.432;2023-05-09T05:04:12;101478.0;;;35.82;24.87
59654;BME280;66556;52.008;5.432;2023-05-09T05:05:49;101472.0;;;36.31;24.45
59654;BME280;66556;52.008;5.432;2023-05-09T05:07:25;101463.0;;;36.06;24.8
59654;BME280;66556;52.008;5.432;2023-05-09T05:10:37;101461.0;;;36.21;24.57
59654;BME280;66556;52.008;5.432;2023-05-09T05:12:13;101457.0;;;35.75;25.01
59654;BME280;66556;52.008;5.432;2023-05-09T05:13:49;101459.0;;;35.36;25.32
59654;BME280;66556;52.008;5.432;2023-05-09T05:17:02;101451.0;;;35.28;25.76
59654;BME280;66556;52.008;5.432;2023-05-09T05:18:38;101451.0;;;34.53;26.42
59654;BME280;66556;52.008;5.432;2023-05-09T05:20:14;101440.0;;;35.58;25.33
59654;BME280;66556;52.008;5.432;2023-05-09T05:21:50;101437.0;;;35.26;25.46
59654;BME280;66556;52.008;5.432;2023-05-09T05:25:03;101439.0;;;34.68;26.52
59654;BME280;66556;52.008;5.432;2023-05-09T05:26:39;101440.0;;;35.35;25.45
59654;BME280;66556;52.008;5.432;2023-05-09T05:28:15;101434.0;;;35.51;25.15
59654;BME280;66556;52.008;5.432;2023-05-09T05:31:27;101430.0;;;35.49;25.36
59654;BME280;66556;52.008;5.432;2023-05-09T05:33:03;101430.0;;;35.69;25.08
59654;BME280;66556;52.008;5.432;2023-05-09T05:34:39;101426.0;;;35.4;25.42
59654;BME280;66556;52.008;5.432;2023-05-09T05:37:52;101424.0;;;36.24;24.56
59654;BME280;66556;52.008;5.432;2023-05-09T05:39:28;101421.0;;;36.03;24.99
59654;BME280;66556;52.008;5.432;2023-05-09T05:41:04;101419.0;;;35.71;24.98
59654;BME280;66556;52.008;5.432;2023-05-09T05:44:16;101415.0;;;35.61;25.58
59654;BME280;66556;52.008;5.432;2023-05-09T05:45:53;101410.0;;;35.86;24.89
59654;BME280;66556;52.008;5.432;2023-05-09T05:47:30;101411.0;;;36.37;24.4
59654;BME280;66556;52.008;5.432;2023-05-09T05:49:06;101413.0;;;35.6;25.01
59654;BME280;66556;52.008;5.432;2023-05-09T05:52:19;101416.0;;;36.1;24.42
59654;BME280;66556;52.008;5.432;2023-05-09T05:53:55;101417.0;;;36.24;24.33
59654;BME280;66556;52.008;5.432;2023-05-09T05:55:31;101413.0;;;35.76;25.01
59654;BME280;66556;52.008;5.432;2023-05-09T05:58:43;101409.0;;;35.92;24.69
59654;BME280;66556;52.008;5.432;2023-05-09T06:00:19;101413.0;;;36.87;23.77
59654;BME280;66556;52.008;5.432;2023-05-09T06:01:55;101409.0;;;36.32;24.65
59654;BME280;66556;52.008;5.432;2023-05-09T06:05:08;101413.0;;;36.22;24.66
59654;BME280;66556;52.008;5.432;2023-05-09T06:06:45;101410.0;;;36.76;24.12
59654;BME280;66556;52.008;5.432;2023-05-09T06:08:21;101405.0;;;37.03;23.94
59654;BME280;66556;52.008;5.432;2023-05-09T06:09:57;101402.0;;;36.56;24.7
59654;BME280;66556;52.008;5.432;2023-05-09T06:13:09;101401.0;;;35.56;25.49
59654;BME280;66556;52.008;5.432;2023-05-09T06:14:45;101401.0;;;35.99;25.1
59654;BME280;66556;52.008;5.432;2023-05-09T06:16:21;101396.0;;;34.71;26.23
59654;BME280;66556;52.008;5.432;2023-05-09T06:19:35;101392.0;;;35.81;25.44
59654;BME280;66556;52.008;5.432;2023-05-09T06:21:11;101387.0;;;36.03;25.07
59654;BME280;66556;52.008;5.432;2023-05-09T06:22:47;101387.0;;;35.74;25.25
59654;BME280;66556;52.008;5.432;2023-05-09T06:25:59;101380.0;;;36.15;24.92
59654;BME280;66556;52.008;5.432;2023-05-09T06:27:36;101382.0;;;35.82;25.18
59654;BME280;66556;52.008;5.432;2023-05-09T06:29:12;101382.0;;;35.83;24.95
59654;BME280;66556;52.008;5.432;2023-05-09T06:32:25;101380.0;;;35.89;24.76
59654;BME280;66556;52.008;5.432;2023-05-09T06:34:01;101376.0;;;36.37;24.49
59654;BME280;66556;52.008;5.432;2023-05-09T06:35:37;101372.0;;;36.76;23.91
59654;BME280;66556;52.008;5.432;2023-05-09T06:37:13;101370.0;;;37.36;23.38
59654;BME280;66556;52.008;5.432;2023-05-09T06:40:26;101362.0;;;36.94;23.67
59654;BME280;66556;52.008;5.432;2023-05-09T06:42:03;101362.0;;;37.0;23.73
59654;BME280;66556;52.008;5.432;2023-05-09T06:43:39;101363.0;;;36.96;23.67
59654;BME280;66556;52.008;5.432;2023-05-09T06:46:51;101359.0;;;35.78;25.0
59654;BME280;66556;52.008;5.432;2023-05-09T06:48:27;101356.0;;;36.25;24.59
59654;BME280;66556;52.008;5.432;2023-05-09T06:50:04;101360.0;;;35.92;25.02
59654;BME280;66556;52.008;5.432;2023-05-09T06:53:16;101353.0;;;36.24;24.7
59654;BME280;66556;52.008;5.432;2023-05-09T06:54:53;101349.0;;;36.56;24.38
59654;BME280;66556;52.008;5.432;2023-05-09T06:56:29;101350.0;;;36.61;24.23
59654;BME280;66556;52.008;5.432;2023-05-09T06:58:05;101348.0;;;36.49;24.26
59654;BME280;66556;52.008;5.432;2023-05-09T07:01:17;101345.0;;;36.43;24.22
59654;BME280;66556;52.008;5.432;2023-05-09T07:02:53;101351.0;;;36.5;23.99
59654;BME280;66556;52.008;5.432;2023-05-09T07:04:29;101348.0;;;35.87;24.85
59654;BME280;66556;52.008;5.432;2023-05-09T07:07:41;101345.0;;;35.75;25.04
59654;BME280;66556;52.008;5.432;2023-05-09T07:09:17;101343.0;;;36.07;24.67
59654;BME280;66556;52.008;5.432;2023-05-09T07:10:53;101347.0;;;35.61;25.31
59654;BME280;66556;52.008;5.432;2023-05-09T07:14:05;101343.0;;;36.29;24.77
59654;BME280;66556;52.008;5.432;2023-05-09T07:15:41;101339.0;;;35.87;24.87
59654;BME280;66556;52.008;5.432;2023-05-09T07:17:17;101336.0;;;36.75;24.27
59654;BME280;66556;52.008;5.432;2023-05-09T07:20:30;101339.0;;;36.28;24.6
59654;BME280;66556;52.008;5.432;2023-05-09T07:22:06;101331.0;;;37.07;23.89
59654;BME280;66556;52.008;5.432;2023-05-09T07:23:42;101330.0;;;36.37;24.4
59654;BME280;66556;52.008;5.432;2023-05-09T07:25:18;101332.0;;;35.96;25.13
59654;BME280;66556;52.008;5.432;2023-05-09T07:28:30;101335.0;;;35.57;25.17
59654;BME280;66556;52.008;5.432;2023-05-09T07:30:07;101330.0;;;35.96;25.29
59654;BME280;66556;52.008;5.432;2023-05-09T07:31:44;101324.0;;;35.47;25.56
59654;BME280;66556;52.008;5.432;2023-05-09T07:34:56;101330.0;;;35.64;25.27
59654;BME280;66556;52.008;5.432;2023-05-09T07:36:32;101326.0;;;35.1;26.14
59654;BME280;66556;52.008;5.432;2023-05-09T07:38:08;101327.0;;;34.92;26.83
59654;BME280;66556;52.008;5.432;2023-05-09T07:41:20;101322.0;;;35.01;26.19
59654;BME280;66556;52.008;5.432;2023-05-09T07:42:57;101322.0;;;35.78;25.83
59654;BME280;66556;52.008;5.432;2023-05-09T07:44:33;101317.0;;;36.1;25.05
59654;BME280;66556;52.008;5.432;2023-05-09T07:47:45;101321.0;;;35.53;25.92
59654;BME280;66556;52.008;5.432;2023-05-09T07:49:21;101315.0;;;35.9;25.65
59654;BME280;66556;52.008;5.432;2023-05-09T07:50:57;101316.0;;;35.61;25.89
59654;BME280;66556;52.008;5.432;2023-05-09T07:52:34;101316.0;;;36.39;24.87
59654;BME280;66556;52.008;5.432;2023-05-09T07:55:47;101310.0;;;36.81;24.51
59654;BME280;66556;52.008;5.432;2023-05-09T07:57:23;101310.0;;;35.78;25.58
59654;BME280;66556;52.008;5.432;2023-05-09T07:58:59;101310.0;;;35.42;25.97
59654;BME280;66556;52.008;5.432;2023-05-09T08:02:11;101307.0;;;35.35;26.28
59654;BME280;66556;52.008;5.432;2023-05-09T08:03:47;101301.0;;;35.49;26.1
59654;BME280;66556;52.008;5.432;2023-05-09T08:05:24;101301.0;;;35.03;26.61
59654;BME280;66556;52.008;5.432;2023-05-09T08:08:37;101295.0;;;35.22;26.71
59654;BME280;66556;52.008;5.432;2023-05-09T08:10:13;101297.0;;;35.56;26.46
59654;BME280;66556;52.008;5.432;2023-05-09T08:11:49;101298.0;;;35.14;26.57
59654;BME280;66556;52.008;5.432;2023-05-09T08:13:25;101291.0;;;35.26;26.72
59654;BME280;66556;52.008;5.432;2023-05-09T08:16:37;101290.0;;;35.21;26.74
59654;BME280;66556;52.008;5.432;2023-05-09T08:18:13;101282.0;;;35.78;26.86
59654;BME280;66556;52.008;5.432;2023-05-09T08:19:49;101280.0;;;35.54;27.1
59654;BME280;66556;52.008;5.432;2023-05-09T08:23:02;101283.0;;;35.72;26.45
59654;BME280;66556;52.008;5.432;2023-05-09T08:24:38;101283.0;;;35.6;26.48
59654;BME280;66556;52.008;5.432;2023-05-09T08:26:14;101280.0;;;35.92;26.63
59654;BME280;66556;52.008;5.432;2023-05-09T08:29:26;101275.0;;;36.1;26.48
59654;BME280;66556;52.008;5.432;2023-05-09T08:31:02;101276.0;;;35.46;26.52
59654;BME280;66556;52.008;5.432;2023-05-09T08:32:39;101268.0;;;35.46;25.96
59654;BME280;66556;52.008;5.432;2023-05-09T08:35:51;101273.0;;;35.01;26.44
59654;BME280;66556;52.008;5.432;2023-05-09T08:37:28;101268.0;;;35.57;25.95
59654;BME280;66556;52.008;5.432;2023-05-09T08:40:40;101262.0;;;34.89;27.17
59654;BME280;66556;52.008;5.432;2023-05-09T08:43:54;101262.0;;;34.93;26.89
59654;BME280;66556;52.008;5.432;2023-05-09T08:45:34;101256.0;;;34.75;27.2
59654;BME280;66556;52.008;5.432;2023-05-09T08:47:15;101255.0;;;35.81;26.31
59654;BME280;66556;52.008;5.432;2023-05-09T08:50:28;101252.0;;;35.35;26.52
59654;BME280;66556;52.008;5.432;2023-05-09T08:52:04;101257.0;;;35.11;27.15
59654;BME280;66556;52.008;5.432;2023-05-09T08:53:41;101251.0;;;35.14;27.2
59654;BME280;66556;52.008;5.432;2023-05-09T08:55:17;101251.0;;;35.71;26.23
59654;BME280;66556;52.008;5.432;2023-05-09T08:58:30;101247.0;;;34.43;27.78
59654;BME280;66556;52.008;5.432;2023-05-09T09:00:08;101249.0;;;34.19;28.44
59654;BME280;66556;52.008;5.432;2023-05-09T09:01:47;101240.0;;;33.96;28.51
59654;BME280;66556;52.008;5.432;2023-05-09T09:05:00;101242.0;;;34.36;28.24
59654;BME280;66556;52.008;5.432;2023-05-09T09:06:38;101241.0;;;34.51;27.87
59654;BME280;66556;52.008;5.432;2023-05-09T09:08:15;101240.0;;;35.46;26.58
59654;BME280;66556;52.008;5.432;2023-05-09T09:09:53;101241.0;;;34.21;28.3
59654;BME280;66556;52.008;5.432;2023-05-09T09:13:09;101241.0;;;35.24;27.11
59654;BME280;66556;52.008;5.432;2023-05-09T09:14:48;101238.0;;;34.78;27.73
59654;BME280;66556;52.008;5.432;2023-05-09T09:16:28;101238.0;;;34.96;27.92
59654;BME280;66556;52.008;5.432;2023-05-09T09:19:43;101234.0;;;34.5;27.78
59654;BME280;66556;52.008;5.432;2023-05-09T09:21:23;101236.0;;;33.86;28.94
59654;BME280;66556;52.008;5.432;2023-05-09T09:23:02;101234.0;;;34.06;28.21
59654;BME280;66556;52.008;5.432;2023-05-09T09:24:39;101230.0;;;33.89;28.32
59654;BME280;66556;52.008;5.432;2023-05-09T09:27:51;101227.0;;;33.68;28.79
59654;BME280;66556;52.008;5.432;2023-05-09T09:29:28;101222.0;;;34.85;27.49
59654;BME280;66556;52.008;5.432;2023-05-09T09:31:18;101220.0;;;34.78;27.55
59654;BME280;66556;52.008;5.432;2023-05-09T09:32:56;101217.0;;;34.46;27.89
59654;BME280;66556;52.008;5.432;2023-05-09T09:36:11;101219.0;;;34.79;27.7
59654;BME280;66556;52.008;5.432;2023-05-09T09:37:48;101216.0;;;35.14;27.77
59654;BME280;66556;52.008;5.432;2023-05-09T09:39:24;101214.0;;;34.46;27.82
59654;BME280;66556;52.008;5.432;2023-05-09T09:42:40;101217.0;;;34.78;27.65
59654;BME280;66556;52.008;5.432;2023-05-09T09:44:17;101223.0;;;33.71;28.91
59654;BME280;66556;52.008;5.432;2023-05-09T09:45:55;101219.0;;;34.14;28.32
59654;BME280;66556;52.008;5.432;2023-05-09T09:47:32;101211.0;;;33.92;28.57
59654;BME280;66556;52.008;5.432;2023-05-09T09:50:46;101215.0;;;33.96;28.87
59654;BME280;66556;52.008;5.432;2023-05-09T09:52:23;101213.0;;;34.25;28.33
59654;BME280;66556;52.008;5.432;2023-05-09T09:54:00;101210.0;;;34.35;28.24
59654;BME280;66556;52.008;5.432;2023-05-09T09:57:40;101210.0;;;34.93;27.84
59654;BME280;66556;52.008;5.432;2023-05-09T09:59:17;101214.0;;;34.35;28.15
59654;BME280;66556;52.008;5.432;2023-05-09T10:01:10;101208.0;;;34.75;27.74
59654;BME280;66556;52.008;5.432;2023-05-09T10:02:49;101215.0;;;33.85;28.62
59654;BME280;66556;52.008;5.432;2023-05-09T10:04:28;101210.0;;;34.15;28.67
59654;BME280;66556;52.008;5.432;2023-05-09T10:07:49;101208.0;;;34.17;28.45
59654;BME280;66556;52.008;5.432;2023-05-09T10:09:26;101205.0;;;34.35;28.3
59654;BME280;66556;52.008;5.432;2023-05-09T10:11:02;101200.0;;;34.74;28.07
59654;BME280;66556;52.008;5.432;2023-05-09T10:12:39;101198.0;;;33.71;29.35
59654;BME280;66556;52.008;5.432;2023-05-09T10:15:56;101199.0;;;34.46;28.66
59654;BME280;66556;52.008;5.432;2023-05-09T10:17:34;101201.0;;;34.67;28.5
59654;BME280;66556;52.008;5.432;2023-05-09T10:19:11;101199.0;;;35.11;28.02
59654;BME280;66556;52.008;5.432;2023-05-09T10:22:24;101200.0;;;33.86;28.84
59654;BME280;66556;52.008;5.432;2023-05-09T10:24:02;101193.0;;;33.6;29.6
59654;BME280;66556;52.008;5.432;2023-05-09T10:25:45;101198.0;;;32.92;30.28
59654;BME280;66556;52.008;5.432;2023-05-09T10:27:33;101186.0;;;34.18;28.77
59654;BME280;66556;52.008;5.432;2023-05-09T10:30:56;101190.0;;;33.92;28.81
59654;BME280;66556;52.008;5.432;2023-05-09T10:32:38;101182.0;;;33.44;30.08
59654;BME280;66556;52.008;5.432;2023-05-09T10:34:22;101184.0;;;33.99;29.19
59654;BME280;66556;52.008;5.432;2023-05-09T10:36:02;101173.0;;;34.99;28.0
59654;BME280;66556;52.008;5.432;2023-05-09T10:39:14;101176.0;;;34.56;28.66
59654;BME280;66556;52.008;5.432;2023-05-09T10:40:52;101176.0;;;34.46;28.72
59654;BME280;66556;52.008;5.432;2023-05-09T10:42:30;101173.0;;;34.42;28.55
59654;BME280;66556;52.008;5.432;2023-05-09T10:44:07;101167.0;;;34.58;28.46
59654;BME280;66556;52.008;5.432;2023-05-09T10:47:22;101160.0;;;34.64;28.35
59654;BME280;66556;52.008;5.432;2023-05-09T10:48:58;101160.0;;;35.32;27.29
59654;BME280;66556;52.008;5.432;2023-05-09T10:50:36;101152.0;;;35.53;27.26
59654;BME280;66556;52.008;5.432;2023-05-09T10:53:49;101150.0;;;34.74;28.14
59654;BME280;66556;52.008;5.432;2023-05-09T10:55:35;101149.0;;;33.83;29.46
59654;BME280;66556;52.008;5.432;2023-05-09T10:57:11;101145.0;;;33.46;29.86
59654;BME280;66556;52.008;5.432;2023-05-09T10:58:47;101145.0;;;35.06;27.99
59654;BME280;66556;52.008;5.432;2023-05-09T11:02:01;101139.0;;;35.14;27.79
59654;BME280;66556;52.008;5.432;2023-05-09T11:03:54;101135.0;;;35.35;27.45
59654;BME280;66556;52.008;5.432;2023-05-09T11:05:37;101138.0;;;35.31;27.57
59654;BME280;66556;52.008;5.432;2023-05-09T11:07:22;101139.0;;;34.42;28.72
59654;BME280;66556;52.008;5.432;2023-05-09T11:11:04;101132.0;;;34.74;28.58
59654;BME280;66556;52.008;5.432;2023-05-09T11:12:59;101133.0;;;34.49;28.51
59654;BME280;66556;52.008;5.432;2023-05-09T11:14:43;101130.0;;;34.75;28.35
59654;BME280;66556;52.008;5.432;2023-05-09T11:16:21;101130.0;;;34.6;28.4